Time;durP1;ratioP1;P1;durP2;ratioP2;P2;SDS_P1;SDS_P2;PMS_P1;PMS_P2;Temp;Humidity;BMP_temperature;BMP_pressure;BME280_temperature;BME280_humidity;BME280_pressure;Samples;Min_cycle;Max_cycle;Signal;HPM_P1;HPM_P2
2022/08/10 00:01:22;;;;;;;;;;;;;;;27.86;57.18;99980.63;5058821;28;19951;-50
2022/08/10 00:03:47;;;;;;;;;;;;;;;28.05;55.74;99982.44;5061702;28;20305;-51
2022/08/10 00:06:13;;;;;;;;;;;;;;;28.59;54.60;99970.50;5057045;28;19995;-50
2022/08/10 00:08:38;;;;;;;;;;;;;;;28.51;53.19;99973.88;5062666;28;20129;-50
2022/08/10 00:11:03;;;;;;;;;;;;;;;28.58;53.37;99976.78;5057830;28;20309;-47
2022/08/10 00:13:28;;;;;;;;;;;;;;;28.33;54.38;99972.88;5059707;28;19955;-49
2022/08/10 00:15:54;;;;;;;;;;;;;;;28.02;54.46;99978.28;5061631;28;20007;-52
2022/08/10 00:18:19;;;;;;;;;;;;;;;28.20;55.09;99975.78;5056850;28;20313;-47
2022/08/10 00:20:44;;;;;;;;;;;;;;;28.05;56.92;99982.44;5058769;28;20035;-49
2022/08/10 00:23:09;;;;;;;;;;;;;;;28.12;55.73;99967.69;5065180;28;19928;-48
2022/08/10 00:25:35;;;;;;;;;;;;;;;28.25;56.28;99962.94;5056734;28;19927;-50
2022/08/10 00:28:00;;;;;;;;;;;;;;;28.35;55.77;99973.53;5061359;28;19974;-48
2022/08/10 00:30:25;;;;;;;;;;;;;;;28.27;54.78;99965.47;5063829;28;19926;-48
2022/08/10 00:32:50;;;;;;;;;;;;;;;28.19;55.51;99963.53;5061782;28;19926;-52
2022/08/10 00:35:16;;;;;;;;;;;;;;;27.87;56.23;99964.59;5067652;28;19977;-49
2022/08/10 00:37:41;;;;;;;;;;;;;;;26.56;61.66;99968.81;5063154;28;19982;-47
2022/08/10 00:40:07;;;;;;;;;;;;;;;25.47;69.22;99973.13;5056815;28;19966;-48
2022/08/10 00:42:32;;;;;;;;;;;;;;;24.58;75.04;99962.31;5063319;28;20983;-50
2022/08/10 00:44:57;;;;;;;;;;;;;;;24.40;77.39;99963.66;5063304;28;20387;-49
2022/08/10 00:47:22;;;;;;;;;;;;;;;24.72;75.25;99955.16;5064360;28;19927;-49
2022/08/10 00:49:47;;;;;;;;;;;;;;;24.79;76.14;99953.75;5062661;28;20475;-48
2022/08/10 00:52:13;;;;;;;;;;;;;;;24.09;79.74;99957.19;5063130;28;20297;-50
2022/08/10 00:54:39;;;;;;;;;;;;;;;24.80;76.33;99942.28;5060744;28;19920;-50
2022/08/10 00:57:04;;;;;;;;;;;;;;;24.99;74.95;99947.78;5064763;28;20055;-50
2022/08/10 00:59:30;;;;;;;;;;;;;;;26.73;67.30;99935.69;5064322;28;20405;-50
2022/08/10 01:01:55;;;;;;;;;;;;;;;26.90;64.31;99943.03;5066098;28;19981;-50
2022/08/10 01:04:21;;;;;;;;;;;;;;;27.00;62.99;99937.78;5068003;28;20027;-49
2022/08/10 01:07:05;;;;;;;;;;;;;;;26.97;61.54;99938.88;5062067;28;19942;-50
2022/08/10 01:09:42;;;;;;;;;;;;;;;27.10;61.64;99936.88;5061578;28;19968;-52
2022/08/10 01:12:28;;;;;;;;;;;;;;;27.20;60.94;99938.72;5066525;28;19920;-49
2022/08/10 01:14:59;;;;;;;;;;;;;;;27.34;61.36;99938.38;5039600;28;19981;-51
2022/08/10 01:17:39;;;;;;;;;;;;;;;27.41;60.03;99936.84;5062995;28;19951;-47
2022/08/10 01:20:17;;;;;;;;;;;;;;;27.37;60.30;99935.47;5068030;28;19916;-48
2022/08/10 01:22:48;;;;;;;;;;;;;;;27.18;60.97;99935.38;5067127;28;19930;-48
2022/08/10 01:25:16;;;;;;;;;;;;;;;26.28;62.48;99937.56;5064225;28;19919;-50
2022/08/10 01:28:11;;;;;;;;;;;;;;;25.92;64.87;99940.59;5057900;28;19920;-52
2022/08/10 01:30:36;;;;;;;;;;;;;;;26.06;65.48;99937.66;5049993;28;19912;-49
2022/08/10 01:33:01;;;;;;;;;;;;;;;25.62;67.55;99936.78;5058957;28;19920;-49
2022/08/10 01:35:29;;;;;;;;;;;;;;;25.67;67.59;99937.25;5056569;28;20846;-49
2022/08/10 01:37:58;;;;;;;;;;;;;;;26.36;64.96;99933.47;5059625;28;20007;-48
2022/08/10 01:40:24;;;;;;;;;;;;;;;26.57;63.95;99934.34;5062661;28;20688;-49
2022/08/10 01:42:50;;;;;;;;;;;;;;;26.78;61.85;99933.50;5060567;28;19923;-51
2022/08/10 01:45:15;;;;;;;;;;;;;;;26.98;61.87;99931.78;5058893;28;21358;-48
2022/08/10 01:50:29;;;;;;;;;;;;;;;25.93;62.40;99934.34;5068733;28;19923;-50
2022/08/10 01:53:01;;;;;;;;;;;;;;;25.70;66.45;99929.09;5056581;28;19982;-49
2022/08/10 01:55:27;;;;;;;;;;;;;;;26.43;63.98;99924.06;5064358;28;20393;-52
2022/08/10 01:57:52;;;;;;;;;;;;;;;26.94;62.40;99922.44;5060519;28;19931;-49
2022/08/10 02:00:17;;;;;;;;;;;;;;;26.84;62.35;99922.38;5056731;28;20011;-51
2022/08/10 02:02:42;;;;;;;;;;;;;;;26.80;61.56;99926.25;5058899;28;20015;-50
2022/08/10 02:05:08;;;;;;;;;;;;;;;26.44;60.34;99923.09;5063618;28;20401;-48
2022/08/10 02:07:33;;;;;;;;;;;;;;;26.39;61.22;99922.63;5057835;28;20459;-48
2022/08/10 02:10:00;;;;;;;;;;;;;;;26.21;63.97;99928.50;5062476;28;21036;-51
2022/08/10 02:12:27;;;;;;;;;;;;;;;25.65;65.28;99933.91;5063485;28;19927;-48
2022/08/10 02:14:54;;;;;;;;;;;;;;;25.84;64.56;99925.34;5058221;28;19920;-52
2022/08/10 02:17:21;;;;;;;;;;;;;;;25.97;64.67;99926.03;5058978;28;19965;-52
2022/08/10 02:19:46;;;;;;;;;;;;;;;26.33;65.09;99929.28;5064399;28;19924;-51
2022/08/10 02:22:11;;;;;;;;;;;;;;;26.20;65.71;99926.78;5067350;28;19981;-52
2022/08/10 02:24:37;;;;;;;;;;;;;;;26.14;64.92;99929.97;5057747;28;19927;-49
2022/08/10 02:27:04;;;;;;;;;;;;;;;25.76;65.38;99930.41;5062895;28;19998;-52
2022/08/10 02:29:30;;;;;;;;;;;;;;;25.95;66.38;99929.78;5060773;28;19931;-49
2022/08/10 02:31:55;;;;;;;;;;;;;;;26.01;66.59;99931.94;5062172;28;19920;-50
2022/08/10 02:34:20;;;;;;;;;;;;;;;25.95;65.56;99925.34;5067752;28;20491;-50
2022/08/10 02:36:49;;;;;;;;;;;;;;;25.16;69.30;99943.03;5064337;28;19920;-50
2022/08/10 02:39:15;;;;;;;;;;;;;;;25.75;67.46;99937.50;5059085;28;19924;-52
2022/08/10 02:41:59;;;;;;;;;;;;;;;25.95;66.93;99933.25;5063512;28;19920;-52
2022/08/10 02:44:29;;;;;;;;;;;;;;;25.94;65.77;99933.41;5057416;28;19920;-51
2022/08/10 02:47:13;;;;;;;;;;;;;;;25.93;65.98;99936.97;5063037;28;19966;-50
2022/08/10 02:49:40;;;;;;;;;;;;;;;25.44;66.92;99942.56;5060112;28;19928;-49
2022/08/10 02:52:11;;;;;;;;;;;;;;;25.20;67.42;99941.84;5063129;28;19939;-51
2022/08/10 02:54:37;;;;;;;;;;;;;;;24.98;69.03;99934.75;5059221;28;19948;-52
2022/08/10 02:57:05;;;;;;;;;;;;;;;24.78;69.55;99938.91;5062638;28;20564;-51
2022/08/10 02:59:32;;;;;;;;;;;;;;;24.93;72.46;99937.75;5061999;28;20270;-51
2022/08/10 03:01:58;;;;;;;;;;;;;;;25.41;69.11;99937.53;5058489;28;19934;-51
2022/08/10 03:04:25;;;;;;;;;;;;;;;25.21;69.29;99933.81;5066805;28;20376;-50
2022/08/10 03:06:54;;;;;;;;;;;;;;;25.58;68.83;99928.28;5062401;28;19928;-52
2022/08/10 03:09:19;;;;;;;;;;;;;;;25.55;68.15;99938.25;5060902;28;20415;-49
2022/08/10 03:11:45;;;;;;;;;;;;;;;25.61;67.41;99938.59;5064277;28;19920;-51
2022/08/10 03:14:10;;;;;;;;;;;;;;;25.59;67.15;99937.03;5056093;28;20090;-48
2022/08/10 03:16:35;;;;;;;;;;;;;;;25.23;67.68;99941.63;5062151;28;19932;-47
2022/08/10 03:19:02;;;;;;;;;;;;;;;25.38;67.83;99943.03;5063135;28;19920;-49
2022/08/10 03:21:27;;;;;;;;;;;;;;;24.89;68.69;99946.84;5056946;28;19929;-47
2022/08/10 03:23:52;;;;;;;;;;;;;;;24.86;70.48;99939.19;5058153;28;19920;-47
2022/08/10 03:26:18;;;;;;;;;;;;;;;24.82;69.73;99932.44;5054666;28;19916;-50
2022/08/10 03:28:43;;;;;;;;;;;;;;;24.36;72.19;99939.38;5056392;28;19960;-49
2022/08/10 03:31:08;;;;;;;;;;;;;;;23.61;76.63;99941.34;5056552;28;20478;-47
2022/08/10 03:33:34;;;;;;;;;;;;;;;24.32;74.35;99934.44;5066659;28;19927;-47
2022/08/10 03:35:59;;;;;;;;;;;;;;;24.35;74.21;99939.47;5064897;28;19924;-49
2022/08/10 03:38:25;;;;;;;;;;;;;;;24.82;73.44;99930.66;5067396;28;20641;-50
2022/08/10 03:40:50;;;;;;;;;;;;;;;24.72;72.22;99932.28;5059630;28;19924;-50
2022/08/10 03:43:16;;;;;;;;;;;;;;;24.66;71.94;99932.78;5058045;28;19977;-47
2022/08/10 03:45:41;;;;;;;;;;;;;;;24.42;74.05;99928.34;5057650;28;19981;-50
2022/08/10 03:48:07;;;;;;;;;;;;;;;24.53;71.89;99935.50;5059568;28;19924;-47
2022/08/10 03:50:32;;;;;;;;;;;;;;;24.66;71.87;99930.16;5058260;28;19927;-49
2022/08/10 03:52:57;;;;;;;;;;;;;;;24.16;72.30;99938.22;5058752;28;19921;-48
2022/08/10 03:55:23;;;;;;;;;;;;;;;24.48;73.93;99935.00;5067327;28;19920;-47
2022/08/10 03:57:48;;;;;;;;;;;;;;;24.11;75.68;99932.44;5057895;28;19946;-47
2022/08/10 04:00:17;;;;;;;;;;;;;;;23.48;79.17;99936.94;5064957;28;20512;-51
2022/08/10 04:02:42;;;;;;;;;;;;;;;24.57;74.22;99931.69;5068998;28;19924;-48
2022/08/10 04:05:07;;;;;;;;;;;;;;;25.03;72.97;99930.78;5071929;28;19951;-47
2022/08/10 04:07:35;;;;;;;;;;;;;;;24.97;72.30;99923.34;5063982;28;19943;-52
2022/08/10 04:10:00;;;;;;;;;;;;;;;24.62;71.75;99929.53;5053001;28;19982;-47
2022/08/10 04:12:25;;;;;;;;;;;;;;;24.46;73.26;99928.97;5064932;28;20036;-50
2022/08/10 04:14:50;;;;;;;;;;;;;;;24.47;74.73;99932.44;5059691;28;20451;-46
2022/08/10 04:17:15;;;;;;;;;;;;;;;24.43;73.35;99929.22;5061827;28;20389;-47
2022/08/10 04:19:42;;;;;;;;;;;;;;;23.76;77.41;99935.84;5065190;28;20007;-48
2022/08/10 04:22:09;;;;;;;;;;;;;;;24.13;76.52;99933.19;5066850;28;20079;-48
2022/08/10 04:24:34;;;;;;;;;;;;;;;23.88;77.11;99928.00;5062460;28;19920;-50
2022/08/10 04:26:59;;;;;;;;;;;;;;;24.14;77.65;99928.75;5067976;28;19921;-47
2022/08/10 04:29:25;;;;;;;;;;;;;;;23.92;78.00;99926.84;5060794;28;19927;-46
2022/08/10 04:31:50;;;;;;;;;;;;;;;24.28;77.06;99936.44;5056871;28;20019;-46
2022/08/10 04:34:15;;;;;;;;;;;;;;;24.14;76.49;99929.59;5067729;28;20006;-48
2022/08/10 04:36:40;;;;;;;;;;;;;;;24.01;79.45;99936.69;5059845;28;19964;-47
2022/08/10 04:39:06;;;;;;;;;;;;;;;24.23;77.12;99943.03;5055471;28;20152;-49
2022/08/10 04:41:31;;;;;;;;;;;;;;;24.25;77.33;99941.13;5058194;28;19931;-47
2022/08/10 04:43:56;;;;;;;;;;;;;;;24.44;76.15;99941.41;5061907;28;20039;-49
2022/08/10 04:46:21;;;;;;;;;;;;;;;24.59;77.72;99936.84;5063385;28;20007;-47
2022/08/10 04:48:47;;;;;;;;;;;;;;;24.68;75.30;99933.50;5064844;28;20031;-48
2022/08/10 04:51:16;;;;;;;;;;;;;;;24.94;75.85;99928.03;5057597;28;19931;-50
2022/08/10 04:53:41;;;;;;;;;;;;;;;25.04;75.28;99929.84;5063638;28;19924;-48
2022/08/10 04:56:07;;;;;;;;;;;;;;;25.00;73.73;99933.66;5056937;28;19920;-46
2022/08/10 04:58:33;;;;;;;;;;;;;;;24.69;76.29;99931.72;5063648;28;19924;-49
2022/08/10 05:00:58;;;;;;;;;;;;;;;24.45;77.98;99934.34;5055496;28;20262;-50
2022/08/10 05:03:23;;;;;;;;;;;;;;;24.58;76.50;99928.06;5065386;28;19959;-47
2022/08/10 05:05:49;;;;;;;;;;;;;;;23.80;78.22;99924.16;5065962;28;20422;-48
2022/08/10 05:08:14;;;;;;;;;;;;;;;25.12;79.03;99931.03;5068449;28;20673;-51
2022/08/10 05:10:39;;;;;;;;;;;;;;;24.63;74.96;99931.22;5064491;28;19955;-47
2022/08/10 05:13:04;;;;;;;;;;;;;;;25.08;78.57;99925.16;5062017;28;19960;-48
2022/08/10 05:15:30;;;;;;;;;;;;;;;25.72;75.58;99927.16;5061149;28;19996;-49
2022/08/10 05:17:55;;;;;;;;;;;;;;;24.19;76.93;99932.69;5065737;28;19920;-50
2022/08/10 05:20:20;;;;;;;;;;;;;;;24.84;78.75;99934.00;5059356;28;19920;-48
2022/08/10 05:22:46;;;;;;;;;;;;;;;25.32;74.37;99933.00;5063903;28;20574;-48
2022/08/10 05:25:12;;;;;;;;;;;;;;;26.07;74.16;99923.50;5058766;28;19927;-49
2022/08/10 05:27:38;;;;;;;;;;;;;;;26.08;74.10;99927.81;5059811;28;19930;-47
2022/08/10 05:30:04;;;;;;;;;;;;;;;26.17;72.37;99932.34;5061555;28;19955;-50
2022/08/10 05:32:30;;;;;;;;;;;;;;;26.48;72.51;99933.28;5060841;28;19920;-46
2022/08/10 05:34:55;;;;;;;;;;;;;;;26.54;70.38;99926.63;5063736;28;20441;-49
2022/08/10 05:37:20;;;;;;;;;;;;;;;25.92;67.39;99927.41;5063443;28;19920;-47
2022/08/10 05:39:46;;;;;;;;;;;;;;;25.63;68.18;99934.00;5059501;28;19927;-46
2022/08/10 05:42:11;;;;;;;;;;;;;;;26.08;69.97;99941.84;5063388;28;19912;-46
2022/08/10 05:44:36;;;;;;;;;;;;;;;26.18;73.25;99935.81;5059810;28;19923;-48
2022/08/10 05:47:02;;;;;;;;;;;;;;;25.18;75.60;99941.09;5064728;28;19924;-50
2022/08/10 05:49:27;;;;;;;;;;;;;;;26.48;71.40;99927.16;5058971;28;20756;-49
2022/08/10 05:51:52;;;;;;;;;;;;;;;27.18;68.63;99924.78;5066997;28;19927;-51
2022/08/10 05:54:18;;;;;;;;;;;;;;;26.78;63.47;99925.59;5061769;28;19921;-51
2022/08/10 05:56:43;;;;;;;;;;;;;;;26.83;66.42;99929.50;5063821;28;19915;-50
2022/08/10 05:59:09;;;;;;;;;;;;;;;26.66;68.05;99930.94;5054579;28;19920;-49
2022/08/10 06:01:36;;;;;;;;;;;;;;;27.28;65.85;99925.72;5059522;28;19916;-47
2022/08/10 06:04:01;;;;;;;;;;;;;;;27.05;67.00;99933.78;5065043;28;20357;-48
2022/08/10 06:06:27;;;;;;;;;;;;;;;27.49;62.36;99931.75;5058877;28;19924;-49
2022/08/10 06:08:52;;;;;;;;;;;;;;;27.29;64.70;99937.94;5062941;28;20027;-47
